createdAt,value
2022-09-07T00:00:37.033Z,22
2022-09-07T00:05:49.195Z,22
2022-09-07T00:11:01.504Z,22
2022-09-07T00:16:14.145Z,22
2022-09-07T00:21:26.284Z,22
2022-09-07T00:26:38.504Z,22
2022-09-07T00:31:50.966Z,22
2022-09-07T00:37:03.335Z,22
2022-09-07T00:42:15.636Z,22
2022-09-07T00:47:27.795Z,22
2022-09-07T00:52:40.064Z,22
2022-09-07T00:57:52.063Z,22
2022-09-07T01:03:04.822Z,22
2022-09-07T01:08:17.164Z,22
2022-09-07T01:13:29.377Z,22
2022-09-07T01:18:41.504Z,21
2022-09-07T01:23:53.625Z,21
2022-09-07T01:29:05.764Z,21
2022-09-07T01:34:17.805Z,21
2022-09-07T01:39:30.210Z,21
2022-09-07T01:44:42.394Z,21
2022-09-07T01:49:54.534Z,21
2022-09-07T01:55:06.844Z,21
2022-09-07T02:00:19.003Z,20
2022-09-07T02:05:31.424Z,21
2022-09-07T02:10:43.525Z,21
2022-09-07T02:15:55.898Z,21
2022-09-07T02:21:08.118Z,21
2022-09-07T02:26:20.349Z,21
2022-09-07T02:31:32.859Z,21
2022-09-07T02:36:45.099Z,21
2022-09-07T02:41:57.379Z,21
2022-09-07T02:47:09.657Z,21
2022-09-07T02:52:21.849Z,21
2022-09-07T02:57:34.072Z,21
2022-09-07T03:02:46.403Z,21
2022-09-07T03:07:58.498Z,21
2022-09-07T03:13:10.720Z,21
2022-09-07T03:18:22.888Z,20
2022-09-07T03:23:35.189Z,20
2022-09-07T03:28:47.230Z,20
2022-09-07T03:33:59.250Z,20
2022-09-07T03:39:11.568Z,20
2022-09-07T03:44:23.629Z,20
2022-09-07T03:49:35.840Z,20
2022-09-07T03:54:47.897Z,20
2022-09-07T04:00:00.182Z,20
2022-09-07T04:05:12.400Z,20
2022-09-07T04:10:24.820Z,20
2022-09-07T04:15:37.020Z,20
2022-09-07T04:20:49.379Z,20
2022-09-07T04:26:01.468Z,20
2022-09-07T04:31:13.876Z,20
2022-09-07T04:36:26.307Z,20
2022-09-07T04:41:38.584Z,20
2022-09-07T04:46:50.769Z,20
2022-09-07T04:52:02.909Z,20
2022-09-07T04:57:14.990Z,20
2022-09-07T05:02:27.423Z,20
2022-09-07T05:07:39.669Z,20
2022-09-07T05:12:51.921Z,20
2022-09-07T05:18:04.201Z,20
2022-09-07T05:23:16.209Z,20
2022-09-07T05:28:28.390Z,20
2022-09-07T05:34:40.501Z,20
2022-09-07T05:39:46.845Z,20
2022-09-07T05:44:58.989Z,20
2022-09-07T05:50:11.181Z,21
2022-09-07T05:55:31.251Z,20
2022-09-07T06:00:41.620Z,21
2022-09-07T06:05:53.950Z,21
2022-09-07T06:11:06.161Z,21
2022-09-07T06:16:18.836Z,20
2022-09-07T06:21:31.163Z,21
2022-09-07T06:26:43.440Z,21
2022-09-07T06:32:55.793Z,21
2022-09-07T06:38:02.220Z,21
2022-09-07T06:43:14.382Z,21
2022-09-07T06:48:26.821Z,22
2022-09-07T06:53:46.007Z,22
2022-09-07T06:58:58.213Z,22
2022-09-07T07:04:10.492Z,22
2022-09-07T07:09:22.882Z,22
2022-09-07T07:14:45.298Z,22
2022-09-07T07:19:55.462Z,22
2022-09-07T07:25:07.592Z,23
2022-09-07T07:30:20.071Z,23
2022-09-07T07:35:32.540Z,23
2022-09-07T07:46:57.065Z,23
2022-09-07T07:58:47.711Z,24
2022-09-07T08:03:59.822Z,24
2022-09-07T08:09:12.375Z,24
2022-09-07T08:14:24.862Z,25
2022-09-07T08:19:37.142Z,25
2022-09-07T08:24:49.816Z,25
2022-09-07T08:30:02.294Z,25
2022-09-07T08:35:15.021Z,25
2022-09-07T08:40:27.480Z,26
2022-09-07T08:45:40.221Z,26
2022-09-07T08:50:52.762Z,26
2022-09-07T08:56:05.317Z,26
2022-09-07T09:01:35.075Z,26
2022-09-07T09:11:13.666Z,26
2022-09-07T09:16:25.762Z,27
2022-09-07T09:21:38.372Z,27
2022-09-07T09:32:03.212Z,27
2022-09-07T09:37:15.693Z,27
2022-09-07T09:42:28.148Z,27
2022-09-07T09:47:40.771Z,27
2022-09-07T09:52:53.521Z,27
2022-09-07T09:59:59.348Z,28
2022-09-07T10:05:17.911Z,28
2022-09-07T10:10:30.053Z,28
2022-09-07T10:15:42.966Z,28
2022-09-07T10:20:55.788Z,28
2022-09-07T10:26:09.008Z,28
2022-09-07T10:31:22.165Z,29
2022-09-07T10:36:35.552Z,29
2022-09-07T10:41:48.468Z,29
2022-09-07T10:47:03.249Z,29
2022-09-07T10:52:16.227Z,29
2022-09-07T10:57:29.417Z,29
2022-09-07T11:03:24.535Z,30
2022-09-07T11:09:17.802Z,30
2022-09-07T11:14:28.393Z,30
2022-09-07T11:19:41.567Z,31
2022-09-07T11:25:30.315Z,34
2022-09-07T11:30:41.387Z,37
2022-09-07T11:36:03.216Z,38
2022-09-07T11:41:24.028Z,38
2022-09-07T11:46:37.913Z,39
2022-09-07T11:51:54.626Z,39
2022-09-07T12:02:55.729Z,40
2022-09-07T12:18:29.590Z,39
2022-09-07T12:39:12.412Z,34
2022-09-07T12:44:30.093Z,35
2022-09-07T12:49:44.760Z,37
2022-09-07T12:55:29.666Z,39
2022-09-07T13:00:41.276Z,39
2022-09-07T13:11:03.823Z,37
2022-09-07T13:16:18.070Z,38
2022-09-07T13:26:42.382Z,38
2022-09-07T13:37:06.148Z,38
2022-09-07T14:23:41.141Z,29
2022-09-07T14:44:24.001Z,28
2022-09-07T14:49:36.339Z,27
2022-09-07T14:54:49.122Z,28
2022-09-07T15:10:24.482Z,27
2022-09-07T15:15:38.200Z,28
2022-09-07T15:20:50.703Z,28
2022-09-07T15:26:03.764Z,28
2022-09-07T15:32:04.674Z,29
2022-09-07T15:38:03.880Z,29
2022-09-07T15:44:05.913Z,29
2022-09-07T15:49:18.047Z,30
2022-09-07T16:04:52.275Z,29
2022-09-07T16:15:40.856Z,29
2022-09-07T16:36:32.337Z,29
2022-09-07T16:41:44.662Z,28
2022-09-07T16:57:17.516Z,28
2022-09-07T17:02:29.992Z,28
2022-09-07T17:07:42.284Z,28
2022-09-07T17:12:54.707Z,28
2022-09-07T17:18:06.972Z,28
2022-09-07T17:23:21.892Z,27
2022-09-07T17:28:34.321Z,27
2022-09-07T17:33:51.685Z,27
2022-09-07T17:39:20.512Z,27
2022-09-07T17:44:38.897Z,27
2022-09-07T17:49:49.471Z,27
2022-09-07T17:55:01.878Z,27
2022-09-07T18:00:14.359Z,27
2022-09-07T18:05:26.746Z,27
2022-09-07T18:15:49.315Z,27
2022-09-07T18:21:01.780Z,27
2022-09-07T18:26:16.360Z,27
2022-09-07T18:31:29.272Z,27
2022-09-07T18:36:44.518Z,27
2022-09-07T18:41:56.611Z,27
2022-09-07T18:47:29.593Z,27
2022-09-07T18:53:17.099Z,27
2022-09-07T18:58:24.971Z,27
2022-09-07T19:03:37.193Z,27
2022-09-07T19:08:50.525Z,27
2022-09-07T19:14:03.278Z,27
2022-09-07T19:39:57.521Z,25
2022-09-07T19:45:10.579Z,25
2022-09-07T19:50:23.705Z,25
2022-09-07T19:55:38.825Z,25
2022-09-07T20:00:51.233Z,24
2022-09-07T20:06:17.008Z,24
2022-09-07T20:11:46.463Z,24
2022-09-07T20:17:04.613Z,24
2022-09-07T20:22:17.645Z,24
2022-09-07T20:27:29.671Z,24
2022-09-07T20:32:42.231Z,24
2022-09-07T20:37:54.754Z,24
2022-09-07T20:43:06.866Z,24
2022-09-07T20:48:19.439Z,23
2022-09-07T20:53:32.364Z,23
2022-09-07T20:58:46.248Z,23
2022-09-07T21:03:58.122Z,23
2022-09-07T21:09:11.028Z,23
2022-09-07T21:14:23.288Z,23
2022-09-07T21:19:36.498Z,23
2022-09-07T21:24:49.064Z,23
2022-09-07T21:30:01.152Z,23
2022-09-07T21:35:13.819Z,23
2022-09-07T21:40:26.039Z,23
2022-09-07T21:45:38.715Z,23
2022-09-07T21:50:55.648Z,23
2022-09-07T21:56:08.071Z,23
2022-09-07T22:01:20.734Z,23
2022-09-07T22:06:36.028Z,23
2022-09-07T22:11:47.451Z,23
2022-09-07T22:16:59.557Z,23
2022-09-07T22:22:11.598Z,23
2022-09-07T22:27:23.909Z,22
2022-09-07T22:32:47.394Z,22
2022-09-07T22:37:58.125Z,22
2022-09-07T22:43:10.195Z,22
2022-09-07T22:48:22.458Z,22
2022-09-07T22:53:35.241Z,22
2022-09-07T22:58:47.273Z,22
2022-09-07T23:03:59.961Z,22
2022-09-07T23:09:12.584Z,22
2022-09-07T23:14:24.613Z,22
2022-09-07T23:19:36.964Z,22
2022-09-07T23:24:49.431Z,22
2022-09-07T23:30:01.711Z,22
2022-09-07T23:35:17.211Z,22
2022-09-07T23:40:28.602Z,22
2022-09-07T23:45:40.752Z,21
2022-09-07T23:50:52.995Z,22
2022-09-07T23:56:05.349Z,22
